sensor_id;sensor_type;location;lat;lon;timestamp;temperature;humidity
5200;DHT22;2619;47.868;11.892;2022-09-01T00:01:37;14.80;99.90
5200;DHT22;2619;47.868;11.892;2022-09-01T00:04:06;14.80;99.90
5200;DHT22;2619;47.868;11.892;2022-09-01T00:06:34;14.80;99.90
5200;DHT22;2619;47.868;11.892;2022-09-01T00:09:03;14.70;99.90
5200;DHT22;2619;47.868;11.892;2022-09-01T00:11:30;14.70;99.90
5200;DHT22;2619;47.868;11.892;2022-09-01T00:13:57;14.70;99.90
5200;DHT22;2619;47.868;11.892;2022-09-01T00:16:23;14.60;99.90
5200;DHT22;2619;47.868;11.892;2022-09-01T00:18:51;14.60;99.90
5200;DHT22;2619;47.868;11.892;2022-09-01T00:21:19;14.60;99.90
5200;DHT22;2619;47.868;11.892;2022-09-01T00:23:45;14.70;99.90
5200;DHT22;2619;47.868;11.892;2022-09-01T00:26:11;14.80;99.90
5200;DHT22;2619;47.868;11.892;2022-09-01T00:28:38;14.80;99.90
5200;DHT22;2619;47.868;11.892;2022-09-01T00:31:04;14.80;99.90
5200;DHT22;2619;47.868;11.892;2022-09-01T00:33:31;14.70;99.90
5200;DHT22;2619;47.868;11.892;2022-09-01T00:35:57;14.80;99.90
5200;DHT22;2619;47.868;11.892;2022-09-01T00:38:23;14.80;99.90
5200;DHT22;2619;47.868;11.892;2022-09-01T00:40:48;14.90;99.90
5200;DHT22;2619;47.868;11.892;2022-09-01T00:43:21;14.90;99.90
5200;DHT22;2619;47.868;11.892;2022-09-01T00:45:47;14.90;99.90
5200;DHT22;2619;47.868;11.892;2022-09-01T00:48:16;14.80;99.90
5200;DHT22;2619;47.868;11.892;2022-09-01T00:50:45;14.80;99.90
5200;DHT22;2619;47.868;11.892;2022-09-01T00:53:11;14.70;99.90
5200;DHT22;2619;47.868;11.892;2022-09-01T00:55:37;14.80;99.90
5200;DHT22;2619;47.868;11.892;2022-09-01T00:58:04;14.70;99.90
5200;DHT22;2619;47.868;11.892;2022-09-01T01:00:33;14.80;99.90
5200;DHT22;2619;47.868;11.892;2022-09-01T01:03:02;14.80;99.90
5200;DHT22;2619;47.868;11.892;2022-09-01T01:05:31;14.90;99.90
5200;DHT22;2619;47.868;11.892;2022-09-01T01:07:59;14.90;99.90
5200;DHT22;2619;47.868;11.892;2022-09-01T01:10:29;14.90;99.90
5200;DHT22;2619;47.868;11.892;2022-09-01T01:12:57;14.90;99.90
5200;DHT22;2619;47.868;11.892;2022-09-01T01:15:27;15.00;99.90
5200;DHT22;2619;47.868;11.892;2022-09-01T01:17:53;15.00;99.90
5200;DHT22;2619;47.868;11.892;2022-09-01T01:20:20;15.00;99.90
5200;DHT22;2619;47.868;11.892;2022-09-01T01:25:59;15.10;99.90
5200;DHT22;2619;47.868;11.892;2022-09-01T01:28:33;15.00;99.90
5200;DHT22;2619;47.868;11.892;2022-09-01T01:31:06;15.00;99.90
5200;DHT22;2619;47.868;11.892;2022-09-01T01:33:40;15.00;99.90
5200;DHT22;2619;47.868;11.892;2022-09-01T01:36:25;15.00;99.90
5200;DHT22;2619;47.868;11.892;2022-09-01T01:39:14;15.00;99.90
5200;DHT22;2619;47.868;11.892;2022-09-01T01:41:43;14.90;99.90
5200;DHT22;2619;47.868;11.892;2022-09-01T01:44:18;14.80;99.90
5200;DHT22;2619;47.868;11.892;2022-09-01T01:46:47;14.80;99.90
5200;DHT22;2619;47.868;11.892;2022-09-01T01:49:15;14.80;99.90
5200;DHT22;2619;47.868;11.892;2022-09-01T01:51:50;14.80;99.90
5200;DHT22;2619;47.868;11.892;2022-09-01T01:54:21;14.80;99.90
5200;DHT22;2619;47.868;11.892;2022-09-01T01:56:47;14.80;99.90
5200;DHT22;2619;47.868;11.892;2022-09-01T01:59:13;14.80;99.90
5200;DHT22;2619;47.868;11.892;2022-09-01T02:01:43;14.80;99.90
5200;DHT22;2619;47.868;11.892;2022-09-01T02:04:13;14.90;99.90
5200;DHT22;2619;47.868;11.892;2022-09-01T02:06:41;14.90;99.90
5200;DHT22;2619;47.868;11.892;2022-09-01T02:09:11;14.80;99.90
5200;DHT22;2619;47.868;11.892;2022-09-01T02:11:37;14.80;99.90
5200;DHT22;2619;47.868;11.892;2022-09-01T02:14:05;14.90;99.90
5200;DHT22;2619;47.868;11.892;2022-09-01T02:16:32;14.80;99.90
5200;DHT22;2619;47.868;11.892;2022-09-01T02:18:59;14.70;99.90
5200;DHT22;2619;47.868;11.892;2022-09-01T02:21:26;14.70;99.90
5200;DHT22;2619;47.868;11.892;2022-09-01T02:24:01;14.50;99.90
5200;DHT22;2619;47.868;11.892;2022-09-01T02:26:35;14.50;99.90
5200;DHT22;2619;47.868;11.892;2022-09-01T02:29:06;14.50;99.90
5200;DHT22;2619;47.868;11.892;2022-09-01T02:31:35;14.30;99.90
5200;DHT22;2619;47.868;11.892;2022-09-01T02:34:05;14.30;99.90
5200;DHT22;2619;47.868;11.892;2022-09-01T02:36:35;14.30;99.90
5200;DHT22;2619;47.868;11.892;2022-09-01T02:39:06;14.20;99.90
5200;DHT22;2619;47.868;11.892;2022-09-01T02:41:32;14.10;99.90
5200;DHT22;2619;47.868;11.892;2022-09-01T02:43:58;14.10;99.90
5200;DHT22;2619;47.868;11.892;2022-09-01T02:46:27;14.10;99.90
5200;DHT22;2619;47.868;11.892;2022-09-01T02:48:53;14.20;99.90
5200;DHT22;2619;47.868;11.892;2022-09-01T02:51:21;14.20;99.90
5200;DHT22;2619;47.868;11.892;2022-09-01T02:53:48;14.20;99.90
5200;DHT22;2619;47.868;11.892;2022-09-01T02:56:16;14.10;99.90
5200;DHT22;2619;47.868;11.892;2022-09-01T02:58:44;14.20;99.90
5200;DHT22;2619;47.868;11.892;2022-09-01T03:01:21;14.20;99.90
5200;DHT22;2619;47.868;11.892;2022-09-01T03:03:49;14.20;99.90
5200;DHT22;2619;47.868;11.892;2022-09-01T03:06:16;14.20;99.90
5200;DHT22;2619;47.868;11.892;2022-09-01T03:08:44;14.20;99.90
5200;DHT22;2619;47.868;11.892;2022-09-01T03:11:10;14.20;99.90
5200;DHT22;2619;47.868;11.892;2022-09-01T03:13:38;14.30;99.90
5200;DHT22;2619;47.868;11.892;2022-09-01T03:16:05;14.30;99.90
5200;DHT22;2619;47.868;11.892;2022-09-01T03:18:32;14.30;99.90
5200;DHT22;2619;47.868;11.892;2022-09-01T03:20:58;14.30;99.90
5200;DHT22;2619;47.868;11.892;2022-09-01T03:23:24;14.10;99.90
5200;DHT22;2619;47.868;11.892;2022-09-01T03:25:50;14.10;99.90
5200;DHT22;2619;47.868;11.892;2022-09-01T03:28:16;14.00;99.90
5200;DHT22;2619;47.868;11.892;2022-09-01T03:30:53;13.90;99.90
5200;DHT22;2619;47.868;11.892;2022-09-01T03:33:22;13.70;99.90
5200;DHT22;2619;47.868;11.892;2022-09-01T03:35:48;13.50;99.90
5200;DHT22;2619;47.868;11.892;2022-09-01T03:38:15;13.30;99.90
5200;DHT22;2619;47.868;11.892;2022-09-01T03:40:51;13.20;99.90
5200;DHT22;2619;47.868;11.892;2022-09-01T03:43:17;13.00;99.90
5200;DHT22;2619;47.868;11.892;2022-09-01T03:45:45;12.90;99.90
5200;DHT22;2619;47.868;11.892;2022-09-01T03:48:10;12.80;99.90
5200;DHT22;2619;47.868;11.892;2022-09-01T03:50:41;12.80;99.90
5200;DHT22;2619;47.868;11.892;2022-09-01T03:53:10;12.70;99.90
5200;DHT22;2619;47.868;11.892;2022-09-01T03:55:36;12.70;99.90
5200;DHT22;2619;47.868;11.892;2022-09-01T03:58:04;12.70;99.90
5200;DHT22;2619;47.868;11.892;2022-09-01T04:00:38;12.60;99.90
5200;DHT22;2619;47.868;11.892;2022-09-01T04:03:06;12.50;99.90
5200;DHT22;2619;47.868;11.892;2022-09-01T04:05:34;12.40;99.90
5200;DHT22;2619;47.868;11.892;2022-09-01T04:08:04;12.40;99.90
5200;DHT22;2619;47.868;11.892;2022-09-01T04:10:33;12.30;99.90
5200;DHT22;2619;47.868;11.892;2022-09-01T04:13:00;12.20;99.90
5200;DHT22;2619;47.868;11.892;2022-09-01T04:15:26;12.10;99.90
5200;DHT22;2619;47.868;11.892;2022-09-01T04:17:53;12.10;99.90
5200;DHT22;2619;47.868;11.892;2022-09-01T04:20:39;12.10;99.90
5200;DHT22;2619;47.868;11.892;2022-09-01T04:23:26;12.10;99.90
5200;DHT22;2619;47.868;11.892;2022-09-01T04:28:37;12.30;99.90
5200;DHT22;2619;47.868;11.892;2022-09-01T04:31:06;12.50;99.90
5200;DHT22;2619;47.868;11.892;2022-09-01T04:33:35;12.60;99.90
5200;DHT22;2619;47.868;11.892;2022-09-01T04:36:22;12.80;99.90
5200;DHT22;2619;47.868;11.892;2022-09-01T04:38:57;12.90;99.90
5200;DHT22;2619;47.868;11.892;2022-09-01T04:41:27;12.90;99.90
5200;DHT22;2619;47.868;11.892;2022-09-01T04:43:56;13.00;99.90
5200;DHT22;2619;47.868;11.892;2022-09-01T04:46:23;13.10;99.90
5200;DHT22;2619;47.868;11.892;2022-09-01T04:48:54;13.10;99.90
5200;DHT22;2619;47.868;11.892;2022-09-01T04:51:20;13.20;99.90
5200;DHT22;2619;47.868;11.892;2022-09-01T04:53:47;13.20;99.90
5200;DHT22;2619;47.868;11.892;2022-09-01T04:56:18;13.40;99.90
5200;DHT22;2619;47.868;11.892;2022-09-01T04:58:45;13.40;99.90
5200;DHT22;2619;47.868;11.892;2022-09-01T05:01:29;13.50;99.90
5200;DHT22;2619;47.868;11.892;2022-09-01T05:03:54;13.50;99.90
5200;DHT22;2619;47.868;11.892;2022-09-01T05:06:27;13.50;99.90
5200;DHT22;2619;47.868;11.892;2022-09-01T05:08:54;13.50;99.90
5200;DHT22;2619;47.868;11.892;2022-09-01T05:11:24;13.60;99.90
5200;DHT22;2619;47.868;11.892;2022-09-01T05:13:50;13.60;99.90
5200;DHT22;2619;47.868;11.892;2022-09-01T05:16:19;13.60;99.90
5200;DHT22;2619;47.868;11.892;2022-09-01T05:18:48;13.60;99.90
5200;DHT22;2619;47.868;11.892;2022-09-01T05:21:19;13.70;99.90
5200;DHT22;2619;47.868;11.892;2022-09-01T05:23:49;13.70;99.90
5200;DHT22;2619;47.868;11.892;2022-09-01T05:26:18;13.80;99.90
5200;DHT22;2619;47.868;11.892;2022-09-01T05:28:47;13.90;99.90
5200;DHT22;2619;47.868;11.892;2022-09-01T05:31:13;13.90;99.90
5200;DHT22;2619;47.868;11.892;2022-09-01T05:33:44;14.00;99.90
5200;DHT22;2619;47.868;11.892;2022-09-01T05:36:14;14.10;99.90
5200;DHT22;2619;47.868;11.892;2022-09-01T05:38:40;14.20;99.90
5200;DHT22;2619;47.868;11.892;2022-09-01T05:41:07;14.30;99.90
5200;DHT22;2619;47.868;11.892;2022-09-01T05:43:34;14.30;99.90
5200;DHT22;2619;47.868;11.892;2022-09-01T05:46:06;14.40;99.90
5200;DHT22;2619;47.868;11.892;2022-09-01T05:48:33;14.40;99.90
5200;DHT22;2619;47.868;11.892;2022-09-01T05:51:05;14.50;99.90
5200;DHT22;2619;47.868;11.892;2022-09-01T05:53:31;14.60;99.90
5200;DHT22;2619;47.868;11.892;2022-09-01T05:55:59;14.60;99.90
5200;DHT22;2619;47.868;11.892;2022-09-01T05:58:26;14.60;99.90
5200;DHT22;2619;47.868;11.892;2022-09-01T06:00:54;14.80;99.90
5200;DHT22;2619;47.868;11.892;2022-09-01T06:03:22;14.80;99.90
5200;DHT22;2619;47.868;11.892;2022-09-01T06:05:49;14.90;99.90
5200;DHT22;2619;47.868;11.892;2022-09-01T06:08:19;15.00;99.90
5200;DHT22;2619;47.868;11.892;2022-09-01T06:10:46;15.00;99.90
5200;DHT22;2619;47.868;11.892;2022-09-01T06:13:15;15.00;99.90
5200;DHT22;2619;47.868;11.892;2022-09-01T06:15:42;14.90;99.90
5200;DHT22;2619;47.868;11.892;2022-09-01T06:18:10;15.10;99.90
5200;DHT22;2619;47.868;11.892;2022-09-01T06:20:44;15.10;99.90
5200;DHT22;2619;47.868;11.892;2022-09-01T06:23:12;15.30;99.90
5200;DHT22;2619;47.868;11.892;2022-09-01T06:25:40;15.30;99.90
5200;DHT22;2619;47.868;11.892;2022-09-01T06:28:07;15.30;99.90
5200;DHT22;2619;47.868;11.892;2022-09-01T06:30:36;15.40;99.90
5200;DHT22;2619;47.868;11.892;2022-09-01T06:33:03;15.50;99.90
5200;DHT22;2619;47.868;11.892;2022-09-01T06:35:35;15.70;99.90
5200;DHT22;2619;47.868;11.892;2022-09-01T06:38:01;15.80;99.90
5200;DHT22;2619;47.868;11.892;2022-09-01T06:40:27;15.90;99.90
5200;DHT22;2619;47.868;11.892;2022-09-01T06:42:53;15.90;99.90
5200;DHT22;2619;47.868;11.892;2022-09-01T06:45:23;15.80;99.90
5200;DHT22;2619;47.868;11.892;2022-09-01T06:47:50;15.80;99.90
5200;DHT22;2619;47.868;11.892;2022-09-01T06:50:19;15.90;99.90
5200;DHT22;2619;47.868;11.892;2022-09-01T06:52:47;16.00;99.90
5200;DHT22;2619;47.868;11.892;2022-09-01T06:55:15;16.30;99.90
5200;DHT22;2619;47.868;11.892;2022-09-01T06:57:42;16.30;99.90
5200;DHT22;2619;47.868;11.892;2022-09-01T07:00:14;16.40;99.90
5200;DHT22;2619;47.868;11.892;2022-09-01T07:02:45;16.30;99.90
5200;DHT22;2619;47.868;11.892;2022-09-01T07:05:13;16.30;99.90
5200;DHT22;2619;47.868;11.892;2022-09-01T07:07:48;16.20;99.90
5200;DHT22;2619;47.868;11.892;2022-09-01T07:10:20;16.30;99.90
5200;DHT22;2619;47.868;11.892;2022-09-01T07:12:51;16.50;99.90
5200;DHT22;2619;47.868;11.892;2022-09-01T07:15:17;16.90;99.90
5200;DHT22;2619;47.868;11.892;2022-09-01T07:17:49;17.10;99.90
5200;DHT22;2619;47.868;11.892;2022-09-01T07:20:16;17.00;99.90
5200;DHT22;2619;47.868;11.892;2022-09-01T07:22:46;16.80;99.90
5200;DHT22;2619;47.868;11.892;2022-09-01T07:25:12;16.80;99.90
5200;DHT22;2619;47.868;11.892;2022-09-01T07:27:40;16.80;99.90
5200;DHT22;2619;47.868;11.892;2022-09-01T07:30:07;17.00;99.90
5200;DHT22;2619;47.868;11.892;2022-09-01T07:32:37;17.20;99.90
5200;DHT22;2619;47.868;11.892;2022-09-01T07:35:08;17.50;99.90
5200;DHT22;2619;47.868;11.892;2022-09-01T07:37:34;17.60;99.90
5200;DHT22;2619;47.868;11.892;2022-09-01T07:40:05;17.70;99.90
5200;DHT22;2619;47.868;11.892;2022-09-01T07:42:31;17.90;99.90
5200;DHT22;2619;47.868;11.892;2022-09-01T07:44:57;18.10;99.90
5200;DHT22;2619;47.868;11.892;2022-09-01T07:47:23;18.30;99.90
5200;DHT22;2619;47.868;11.892;2022-09-01T07:49:48;18.30;99.90
5200;DHT22;2619;47.868;11.892;2022-09-01T07:52:14;18.20;99.90
5200;DHT22;2619;47.868;11.892;2022-09-01T07:54:40;18.20;99.90
5200;DHT22;2619;47.868;11.892;2022-09-01T07:57:06;18.40;99.90
5200;DHT22;2619;47.868;11.892;2022-09-01T07:59:32;18.30;99.90
5200;DHT22;2619;47.868;11.892;2022-09-01T08:01:59;18.30;99.90
5200;DHT22;2619;47.868;11.892;2022-09-01T08:04:30;18.30;99.90
5200;DHT22;2619;47.868;11.892;2022-09-01T08:06:56;18.20;99.90
5200;DHT22;2619;47.868;11.892;2022-09-01T08:09:22;18.30;99.90
5200;DHT22;2619;47.868;11.892;2022-09-01T08:11:47;18.80;99.90
5200;DHT22;2619;47.868;11.892;2022-09-01T08:14:13;18.90;99.90
5200;DHT22;2619;47.868;11.892;2022-09-01T08:16:38;18.40;99.90
5200;DHT22;2619;47.868;11.892;2022-09-01T08:19:04;18.80;99.90
5200;DHT22;2619;47.868;11.892;2022-09-01T08:21:29;18.80;99.90
5200;DHT22;2619;47.868;11.892;2022-09-01T08:23:55;19.30;99.90
5200;DHT22;2619;47.868;11.892;2022-09-01T08:26:24;19.20;99.90
5200;DHT22;2619;47.868;11.892;2022-09-01T08:28:50;18.70;99.90
5200;DHT22;2619;47.868;11.892;2022-09-01T08:31:18;18.80;99.90
5200;DHT22;2619;47.868;11.892;2022-09-01T08:33:45;18.90;99.90
5200;DHT22;2619;47.868;11.892;2022-09-01T08:36:13;19.20;99.90
5200;DHT22;2619;47.868;11.892;2022-09-01T08:38:39;20.10;99.90
5200;DHT22;2619;47.868;11.892;2022-09-01T08:41:57;20.70;99.90
5200;DHT22;2619;47.868;11.892;2022-09-01T08:46:42;20.40;99.90
5200;DHT22;2619;47.868;11.892;2022-09-01T08:56:41;19.20;99.90
5200;DHT22;2619;47.868;11.892;2022-09-01T08:59:09;19.20;99.90
5200;DHT22;2619;47.868;11.892;2022-09-01T09:07:14;19.50;99.90
5200;DHT22;2619;47.868;11.892;2022-09-01T09:09:52;20.00;99.90
5200;DHT22;2619;47.868;11.892;2022-09-01T09:12:28;20.40;99.90
5200;DHT22;2619;47.868;11.892;2022-09-01T09:15:16;20.80;99.90
5200;DHT22;2619;47.868;11.892;2022-09-01T09:17:49;21.10;99.90
5200;DHT22;2619;47.868;11.892;2022-09-01T09:20:20;21.40;99.90
5200;DHT22;2619;47.868;11.892;2022-09-01T09:22:48;21.40;99.90
5200;DHT22;2619;47.868;11.892;2022-09-01T09:25:16;21.80;99.90
5200;DHT22;2619;47.868;11.892;2022-09-01T09:27:47;20.90;99.90
5200;DHT22;2619;47.868;11.892;2022-09-01T09:30:25;20.40;99.90
5200;DHT22;2619;47.868;11.892;2022-09-01T09:32:58;20.10;99.90
5200;DHT22;2619;47.868;11.892;2022-09-01T09:35:45;20.20;99.90
5200;DHT22;2619;47.868;11.892;2022-09-01T09:43:36;20.70;99.90
5200;DHT22;2619;47.868;11.892;2022-09-01T09:48:49;21.10;99.90
5200;DHT22;2619;47.868;11.892;2022-09-01T09:51:30;21.40;99.90
5200;DHT22;2619;47.868;11.892;2022-09-01T09:54:20;21.40;99.90
5200;DHT22;2619;47.868;11.892;2022-09-01T09:56:47;21.00;99.90
5200;DHT22;2619;47.868;11.892;2022-09-01T09:59:41;21.10;99.90
5200;DHT22;2619;47.868;11.892;2022-09-01T10:02:37;21.40;99.90
5200;DHT22;2619;47.868;11.892;2022-09-01T10:07:47;21.70;99.90
5200;DHT22;2619;47.868;11.892;2022-09-01T10:10:29;21.60;99.90
5200;DHT22;2619;47.868;11.892;2022-09-01T10:12:56;21.20;99.90
5200;DHT22;2619;47.868;11.892;2022-09-01T10:15:25;21.00;99.90
5200;DHT22;2619;47.868;11.892;2022-09-01T10:17:54;20.90;99.90
5200;DHT22;2619;47.868;11.892;2022-09-01T10:20:24;21.10;99.90
5200;DHT22;2619;47.868;11.892;2022-09-01T10:22:51;21.40;99.90
5200;DHT22;2619;47.868;11.892;2022-09-01T10:25:25;21.40;99.90
5200;DHT22;2619;47.868;11.892;2022-09-01T10:27:56;21.10;99.90
5200;DHT22;2619;47.868;11.892;2022-09-01T10:30:23;20.90;99.90
5200;DHT22;2619;47.868;11.892;2022-09-01T10:32:53;21.00;99.90
5200;DHT22;2619;47.868;11.892;2022-09-01T10:35:28;21.00;99.90
5200;DHT22;2619;47.868;11.892;2022-09-01T10:37:56;21.20;99.90
5200;DHT22;2619;47.868;11.892;2022-09-01T10:42:49;20.20;99.90
5200;DHT22;2619;47.868;11.892;2022-09-01T10:45:31;20.40;99.90
5200;DHT22;2619;47.868;11.892;2022-09-01T10:50:46;20.20;99.90
5200;DHT22;2619;47.868;11.892;2022-09-01T11:07:05;19.60;99.90
5200;DHT22;2619;47.868;11.892;2022-09-01T11:12:50;20.00;99.90
5200;DHT22;2619;47.868;11.892;2022-09-01T11:15:35;20.20;99.90
5200;DHT22;2619;47.868;11.892;2022-09-01T11:18:02;20.40;99.90
5200;DHT22;2619;47.868;11.892;2022-09-01T11:20:35;20.30;99.90
5200;DHT22;2619;47.868;11.892;2022-09-01T11:23:31;20.40;99.90
5200;DHT22;2619;47.868;11.892;2022-09-01T11:26:01;20.50;99.90
5200;DHT22;2619;47.868;11.892;2022-09-01T11:33:51;22.30;99.90
5200;DHT22;2619;47.868;11.892;2022-09-01T11:36:20;22.40;99.90
5200;DHT22;2619;47.868;11.892;2022-09-01T11:38:55;21.70;99.90
5200;DHT22;2619;47.868;11.892;2022-09-01T11:41:43;21.60;99.90
5200;DHT22;2619;47.868;11.892;2022-09-01T11:46:49;21.40;99.90
5200;DHT22;2619;47.868;11.892;2022-09-01T11:49:27;21.30;99.90
5200;DHT22;2619;47.868;11.892;2022-09-01T11:51:54;21.30;99.90
5200;DHT22;2619;47.868;11.892;2022-09-01T11:54:22;21.00;99.90
5200;DHT22;2619;47.868;11.892;2022-09-01T11:56:47;21.10;99.90
5200;DHT22;2619;47.868;11.892;2022-09-01T11:59:13;20.90;99.90
5200;DHT22;2619;47.868;11.892;2022-09-01T12:01:39;20.80;99.90
5200;DHT22;2619;47.868;11.892;2022-09-01T12:04:34;21.10;99.90
5200;DHT22;2619;47.868;11.892;2022-09-01T12:07:06;21.30;99.90
5200;DHT22;2619;47.868;11.892;2022-09-01T12:09:38;21.50;99.90
5200;DHT22;2619;47.868;11.892;2022-09-01T12:17:35;21.80;99.90
5200;DHT22;2619;47.868;11.892;2022-09-01T12:20:34;21.40;99.90
5200;DHT22;2619;47.868;11.892;2022-09-01T12:23:00;21.20;99.90
5200;DHT22;2619;47.868;11.892;2022-09-01T12:25:30;21.50;99.90
5200;DHT22;2619;47.868;11.892;2022-09-01T12:27:59;21.40;99.90
5200;DHT22;2619;47.868;11.892;2022-09-01T12:30:25;21.40;99.90
5200;DHT22;2619;47.868;11.892;2022-09-01T12:32:52;21.00;99.90
5200;DHT22;2619;47.868;11.892;2022-09-01T12:35:25;21.10;99.90
5200;DHT22;2619;47.868;11.892;2022-09-01T12:38:12;21.20;99.90
5200;DHT22;2619;47.868;11.892;2022-09-01T12:40:37;21.40;99.90
5200;DHT22;2619;47.868;11.892;2022-09-01T12:43:03;21.40;99.90
5200;DHT22;2619;47.868;11.892;2022-09-01T12:48:01;22.20;99.90
5200;DHT22;2619;47.868;11.892;2022-09-01T12:52:54;23.20;99.90
5200;DHT22;2619;47.868;11.892;2022-09-01T12:55:28;23.10;99.90
5200;DHT22;2619;47.868;11.892;2022-09-01T12:57:58;22.60;99.90
5200;DHT22;2619;47.868;11.892;2022-09-01T13:00:26;22.00;99.90
5200;DHT22;2619;47.868;11.892;2022-09-01T13:05:26;21.50;99.90
5200;DHT22;2619;47.868;11.892;2022-09-01T13:07:54;21.70;99.90
5200;DHT22;2619;47.868;11.892;2022-09-01T13:10:20;21.70;99.90
5200;DHT22;2619;47.868;11.892;2022-09-01T13:12:47;21.90;99.90
5200;DHT22;2619;47.868;11.892;2022-09-01T13:15:13;21.70;99.90
5200;DHT22;2619;47.868;11.892;2022-09-01T13:17:39;21.50;99.90
5200;DHT22;2619;47.868;11.892;2022-09-01T13:20:05;21.90;99.90
5200;DHT22;2619;47.868;11.892;2022-09-01T13:22:31;22.40;99.90
5200;DHT22;2619;47.868;11.892;2022-09-01T13:24:57;22.90;99.90
5200;DHT22;2619;47.868;11.892;2022-09-01T13:27:22;22.60;99.90
5200;DHT22;2619;47.868;11.892;2022-09-01T13:29:49;22.10;99.90
5200;DHT22;2619;47.868;11.892;2022-09-01T13:32:15;21.70;99.90
5200;DHT22;2619;47.868;11.892;2022-09-01T13:34:41;21.30;99.90
5200;DHT22;2619;47.868;11.892;2022-09-01T13:37:07;21.20;99.90
5200;DHT22;2619;47.868;11.892;2022-09-01T13:39:32;21.40;99.90
5200;DHT22;2619;47.868;11.892;2022-09-01T13:41:58;21.60;99.90
5200;DHT22;2619;47.868;11.892;2022-09-01T13:44:23;21.50;99.90
5200;DHT22;2619;47.868;11.892;2022-09-01T13:46:49;21.60;99.90
5200;DHT22;2619;47.868;11.892;2022-09-01T13:49:15;21.70;99.90
5200;DHT22;2619;47.868;11.892;2022-09-01T13:51:40;22.00;99.90
5200;DHT22;2619;47.868;11.892;2022-09-01T13:54:06;22.20;99.90
5200;DHT22;2619;47.868;11.892;2022-09-01T13:56:31;22.50;99.90
5200;DHT22;2619;47.868;11.892;2022-09-01T13:58:57;22.40;99.90
5200;DHT22;2619;47.868;11.892;2022-09-01T14:01:23;22.30;99.90
5200;DHT22;2619;47.868;11.892;2022-09-01T14:03:49;22.00;99.90
5200;DHT22;2619;47.868;11.892;2022-09-01T14:06:15;21.70;99.90
5200;DHT22;2619;47.868;11.892;2022-09-01T14:08:41;21.30;99.90
5200;DHT22;2619;47.868;11.892;2022-09-01T14:11:06;20.80;99.90
5200;DHT22;2619;47.868;11.892;2022-09-01T14:13:33;20.50;99.90
5200;DHT22;2619;47.868;11.892;2022-09-01T14:15:59;20.00;99.90
5200;DHT22;2619;47.868;11.892;2022-09-01T14:18:25;20.00;99.90
5200;DHT22;2619;47.868;11.892;2022-09-01T14:20:57;20.50;99.90
5200;DHT22;2619;47.868;11.892;2022-09-01T14:23:26;20.60;99.90
5200;DHT22;2619;47.868;11.892;2022-09-01T14:25:52;20.60;99.90
5200;DHT22;2619;47.868;11.892;2022-09-01T14:28:19;20.30;99.90
5200;DHT22;2619;47.868;11.892;2022-09-01T14:30:45;20.10;99.90
5200;DHT22;2619;47.868;11.892;2022-09-01T14:33:11;20.00;99.90
5200;DHT22;2619;47.868;11.892;2022-09-01T14:35:42;20.20;99.90
5200;DHT22;2619;47.868;11.892;2022-09-01T14:38:10;20.10;99.90
5200;DHT22;2619;47.868;11.892;2022-09-01T14:40:38;20.20;99.90
5200;DHT22;2619;47.868;11.892;2022-09-01T14:43:06;20.10;99.90
5200;DHT22;2619;47.868;11.892;2022-09-01T14:45:34;20.10;99.90
5200;DHT22;2619;47.868;11.892;2022-09-01T14:48:02;20.10;99.90
5200;DHT22;2619;47.868;11.892;2022-09-01T14:50:29;20.20;99.90
5200;DHT22;2619;47.868;11.892;2022-09-01T14:52:58;20.10;99.90
5200;DHT22;2619;47.868;11.892;2022-09-01T14:55:26;19.90;99.90
5200;DHT22;2619;47.868;11.892;2022-09-01T14:57:53;19.80;99.90
5200;DHT22;2619;47.868;11.892;2022-09-01T15:00:20;19.80;99.90
5200;DHT22;2619;47.868;11.892;2022-09-01T15:02:47;19.80;99.90
5200;DHT22;2619;47.868;11.892;2022-09-01T15:05:13;19.70;99.90
5200;DHT22;2619;47.868;11.892;2022-09-01T15:07:40;19.60;99.90
5200;DHT22;2619;47.868;11.892;2022-09-01T15:10:08;19.60;99.90
5200;DHT22;2619;47.868;11.892;2022-09-01T15:12:34;19.50;99.90
5200;DHT22;2619;47.868;11.892;2022-09-01T15:15:01;19.40;99.90
5200;DHT22;2619;47.868;11.892;2022-09-01T15:17:27;19.40;99.90
5200;DHT22;2619;47.868;11.892;2022-09-01T15:19:53;19.60;99.90
5200;DHT22;2619;47.868;11.892;2022-09-01T15:22:19;19.70;99.90
5200;DHT22;2619;47.868;11.892;2022-09-01T15:24:44;19.50;99.90
5200;DHT22;2619;47.868;11.892;2022-09-01T15:27:10;19.40;99.90
5200;DHT22;2619;47.868;11.892;2022-09-01T15:29:36;19.40;99.90
5200;DHT22;2619;47.868;11.892;2022-09-01T15:32:11;19.40;99.90
5200;DHT22;2619;47.868;11.892;2022-09-01T15:34:37;19.30;99.90
5200;DHT22;2619;47.868;11.892;2022-09-01T15:37:03;19.40;99.90
5200;DHT22;2619;47.868;11.892;2022-09-01T15:39:29;19.50;99.90
5200;DHT22;2619;47.868;11.892;2022-09-01T15:41:55;19.50;99.90
5200;DHT22;2619;47.868;11.892;2022-09-01T15:44:21;19.40;99.90
5200;DHT22;2619;47.868;11.892;2022-09-01T15:46:47;19.50;99.90
5200;DHT22;2619;47.868;11.892;2022-09-01T15:49:12;19.80;99.90
5200;DHT22;2619;47.868;11.892;2022-09-01T15:51:40;20.00;99.90
5200;DHT22;2619;47.868;11.892;2022-09-01T15:54:12;19.90;99.90
5200;DHT22;2619;47.868;11.892;2022-09-01T15:56:38;19.70;99.90
5200;DHT22;2619;47.868;11.892;2022-09-01T15:59:05;19.30;99.90
5200;DHT22;2619;47.868;11.892;2022-09-01T16:01:37;19.10;99.90
5200;DHT22;2619;47.868;11.892;2022-09-01T16:04:04;18.70;99.90
5200;DHT22;2619;47.868;11.892;2022-09-01T16:06:30;18.50;99.90
5200;DHT22;2619;47.868;11.892;2022-09-01T16:08:56;18.50;99.90
5200;DHT22;2619;47.868;11.892;2022-09-01T16:11:23;18.20;99.90
5200;DHT22;2619;47.868;11.892;2022-09-01T16:13:50;18.10;99.90
5200;DHT22;2619;47.868;11.892;2022-09-01T16:19:32;17.90;99.90
5200;DHT22;2619;47.868;11.892;2022-09-01T16:22:18;17.80;99.90
5200;DHT22;2619;47.868;11.892;2022-09-01T16:24:49;17.70;99.90
5200;DHT22;2619;47.868;11.892;2022-09-01T16:27:20;17.70;99.90
5200;DHT22;2619;47.868;11.892;2022-09-01T16:29:49;17.60;99.90
5200;DHT22;2619;47.868;11.892;2022-09-01T16:32:17;17.60;99.90
5200;DHT22;2619;47.868;11.892;2022-09-01T16:34:46;17.60;99.90
5200;DHT22;2619;47.868;11.892;2022-09-01T16:37:27;17.60;99.90
5200;DHT22;2619;47.868;11.892;2022-09-01T16:45:06;17.60;99.90
5200;DHT22;2619;47.868;11.892;2022-09-01T17:04:37;17.20;99.90
5200;DHT22;2619;47.868;11.892;2022-09-01T17:10:05;17.00;99.90
5200;DHT22;2619;47.868;11.892;2022-09-01T17:12:47;16.80;99.90
5200;DHT22;2619;47.868;11.892;2022-09-01T17:15:16;16.70;99.90
5200;DHT22;2619;47.868;11.892;2022-09-01T17:17:52;16.70;99.90
5200;DHT22;2619;47.868;11.892;2022-09-01T17:20:26;16.60;99.90
5200;DHT22;2619;47.868;11.892;2022-09-01T17:22:55;16.50;99.90
5200;DHT22;2619;47.868;11.892;2022-09-01T17:25:33;16.30;99.90
5200;DHT22;2619;47.868;11.892;2022-09-01T17:28:17;16.10;99.90
5200;DHT22;2619;47.868;11.892;2022-09-01T17:31:06;15.90;99.90
5200;DHT22;2619;47.868;11.892;2022-09-01T17:36:06;15.60;99.90
5200;DHT22;2619;47.868;11.892;2022-09-01T17:41:33;15.30;99.90
5200;DHT22;2619;47.868;11.892;2022-09-01T17:45:07;15.20;99.90
5200;DHT22;2619;47.868;11.892;2022-09-01T17:47:34;15.00;99.90
5200;DHT22;2619;47.868;11.892;2022-09-01T17:56:00;14.60;99.90